Lake Nichols, Minnesota
Current Conditions -  °F | °C
As of 12:55 AM on Wednesday 22 Oct 2014 (Local Time) from KDLH Reporting Station
Clear Clear  
Wind Chill: 33°   Ceiling: Unl
Heat Index: 39°   Visibility: 10mi
Dew Point: 35°   Wind: 9mph
Humidity: 86%   Direction: 140°SE
Pressure: 30.18"   Gusts: NA
Location:  47.068°N, 92.4547°W
Report Text: KDLH 220555Z 14008KT 10SM CLR 04/02 A3018 RMK AO2 SLP236 T00390017 10050 20028 400830028 58006
Loading
Personal Weather Stations






























Interactive Weather Map
Tropical Storm Tracking
New forecast layout! Learn more

10-Day Weather Forecast

Advertisements
Track Severe Weather on mobile